createdAt,value
2018-10-12T00:01:14.210Z,20.20
2018-10-12T00:03:43.141Z,19.80
2018-10-12T00:06:12.055Z,19.90
2018-10-12T00:08:41.087Z,20.10
2018-10-12T00:11:09.903Z,20.10
2018-10-12T00:13:38.658Z,20.00
2018-10-12T00:16:07.131Z,20.10
2018-10-12T00:18:36.018Z,20.10
2018-10-12T00:21:04.692Z,20.20
2018-10-12T00:23:33.579Z,20.20
2018-10-12T00:26:02.156Z,20.20
2018-10-12T00:28:30.925Z,20.20
2018-10-12T00:30:59.514Z,20.20
2018-10-12T00:33:28.219Z,20.20
2018-10-12T00:35:57.328Z,20.30
2018-10-12T00:38:25.957Z,20.30
2018-10-12T00:40:54.607Z,20.30
2018-10-12T00:43:23.424Z,20.30
2018-10-12T00:45:52.183Z,20.20
2018-10-12T00:48:20.862Z,20.20
2018-10-12T00:50:49.594Z,20.20
2018-10-12T00:53:18.325Z,20.10
2018-10-12T00:55:47.072Z,20.00
2018-10-12T00:58:15.760Z,20.00
2018-10-12T01:00:44.519Z,20.10
2018-10-12T01:03:13.396Z,20.00
2018-10-12T01:05:42.095Z,20.10
2018-10-12T01:08:11.071Z,20.10
2018-10-12T01:10:39.755Z,20.00
2018-10-12T01:13:08.637Z,20.00
2018-10-12T01:15:37.482Z,20.00
2018-10-12T01:18:06.359Z,20.10
2018-10-12T01:20:35.400Z,20.10
2018-10-12T01:23:03.999Z,20.00
2018-10-12T01:25:32.938Z,20.10
2018-10-12T01:28:01.676Z,20.10
2018-10-12T01:30:30.577Z,20.00
2018-10-12T01:33:05.499Z,19.80
2018-10-12T01:35:34.608Z,19.70
2018-10-12T01:38:03.565Z,19.70
2018-10-12T01:40:32.747Z,19.60
2018-10-12T01:43:01.788Z,19.50
2018-10-12T01:45:30.800Z,19.50
2018-10-12T01:47:59.639Z,19.50
2018-10-12T01:50:28.329Z,19.60
2018-10-12T01:52:57.219Z,19.70
2018-10-12T01:55:25.931Z,19.70
2018-10-12T01:57:54.653Z,19.60
2018-10-12T02:00:23.554Z,19.50
2018-10-12T02:02:52.388Z,19.40
2018-10-12T02:05:21.465Z,19.40
2018-10-12T02:07:50.254Z,19.40
2018-10-12T02:10:19.054Z,19.10
2018-10-12T02:12:47.713Z,19.00
2018-10-12T02:15:16.676Z,18.90
2018-10-12T02:17:45.316Z,18.90
2018-10-12T02:20:14.153Z,18.90
2018-10-12T02:22:43.081Z,19.10
2018-10-12T02:25:12.089Z,19.20
2018-10-12T02:27:40.778Z,19.00
2018-10-12T02:30:10.111Z,18.90
2018-10-12T02:32:39.030Z,19.00
2018-10-12T02:35:08.158Z,18.80
2018-10-12T02:37:37.093Z,18.90
2018-10-12T02:40:06.024Z,19.00
2018-10-12T02:42:34.932Z,19.00
2018-10-12T02:45:03.852Z,18.90
2018-10-12T02:47:32.695Z,19.00
2018-10-12T02:50:01.450Z,19.00
2018-10-12T02:52:30.132Z,18.90
2018-10-12T02:54:58.876Z,18.70
2018-10-12T02:57:27.758Z,18.40
2018-10-12T02:59:56.453Z,18.40
2018-10-12T03:02:25.238Z,18.20
2018-10-12T03:04:54.234Z,18.10
2018-10-12T03:07:23.055Z,18.20
2018-10-12T03:09:51.751Z,18.30
2018-10-12T03:12:20.485Z,18.20
2018-10-12T03:14:49.451Z,18.00
2018-10-12T03:17:18.456Z,17.90
2018-10-12T03:19:47.254Z,18.10
2018-10-12T03:22:15.989Z,17.90
2018-10-12T03:24:44.908Z,18.00
2018-10-12T03:27:13.579Z,18.00
2018-10-12T03:29:42.591Z,17.90
2018-10-12T03:32:11.628Z,17.90
2018-10-12T03:34:40.600Z,17.90
2018-10-12T03:37:09.628Z,17.90
2018-10-12T03:39:38.220Z,18.00
2018-10-12T03:42:07.078Z,18.00
2018-10-12T03:44:35.723Z,18.20
2018-10-12T03:47:04.504Z,18.30
2018-10-12T03:49:33.285Z,18.30
2018-10-12T03:52:05.697Z,18.40
2018-10-12T03:54:34.666Z,18.40
2018-10-12T03:57:04.189Z,18.40
2018-10-12T03:59:32.909Z,18.40
2018-10-12T04:02:01.717Z,18.20
2018-10-12T04:04:30.391Z,18.20
2018-10-12T04:06:59.238Z,18.20
2018-10-12T04:09:27.933Z,18.30
2018-10-12T04:11:56.823Z,18.20
2018-10-12T04:14:25.558Z,18.30
2018-10-12T04:16:54.242Z,18.10
2018-10-12T04:19:22.930Z,18.10
2018-10-12T04:21:51.482Z,18.10
2018-10-12T04:24:20.239Z,18.10
2018-10-12T04:26:48.976Z,17.90
2018-10-12T04:29:17.687Z,17.80
2018-10-12T04:31:46.542Z,17.80
2018-10-12T04:34:15.385Z,17.80
2018-10-12T04:36:44.102Z,17.60
2018-10-12T04:39:23.711Z,17.60
2018-10-12T04:41:52.881Z,17.40
2018-10-12T04:44:21.820Z,17.20
2018-10-12T04:46:50.591Z,17.30
2018-10-12T04:49:19.449Z,17.10
2018-10-12T04:51:51.967Z,17.20
2018-10-12T04:54:21.385Z,17.10
2018-10-12T04:56:50.552Z,17.20
2018-10-12T04:59:19.519Z,17.40
2018-10-12T05:01:48.388Z,17.30
2018-10-12T05:04:17.156Z,17.20
2018-10-12T05:06:46.000Z,17.30
2018-10-12T05:09:15.241Z,17.30
2018-10-12T05:11:44.303Z,17.30
2018-10-12T05:14:13.038Z,17.30
2018-10-12T05:16:41.977Z,17.40
2018-10-12T05:19:10.652Z,17.40
2018-10-12T05:21:39.306Z,17.30
2018-10-12T05:24:07.977Z,17.40
2018-10-12T05:26:36.825Z,17.60
2018-10-12T05:29:05.638Z,17.80
2018-10-12T05:31:34.486Z,17.90
2018-10-12T05:34:03.264Z,18.00
2018-10-12T05:36:32.082Z,18.10
2018-10-12T05:39:37.398Z,18.30
2018-10-12T05:42:26.878Z,18.50
2018-10-12T05:44:55.789Z,18.50
2018-10-12T05:47:24.407Z,18.70
2018-10-12T05:50:02.291Z,18.50
2018-10-12T05:52:32.005Z,18.60
2018-10-12T05:55:01.496Z,18.80
2018-10-12T05:57:31.040Z,18.80
2018-10-12T05:59:59.846Z,19.00
2018-10-12T06:02:28.655Z,19.00
2018-10-12T06:04:57.352Z,19.20
2018-10-12T06:07:26.037Z,19.30
2018-10-12T06:09:54.996Z,19.50
2018-10-12T06:12:23.699Z,19.60
2018-10-12T06:14:52.460Z,19.80
2018-10-12T06:17:21.274Z,19.80
2018-10-12T06:19:49.952Z,20.00
2018-10-12T06:22:18.723Z,20.50
2018-10-12T06:24:47.579Z,21.70
2018-10-12T06:27:16.307Z,22.40
2018-10-12T06:29:45.001Z,23.10
2018-10-12T06:32:13.899Z,23.80
2018-10-12T06:34:42.596Z,23.90
2018-10-12T06:37:11.440Z,24.30
2018-10-12T06:39:40.214Z,24.80
2018-10-12T06:42:09.063Z,25.40
2018-10-12T06:44:37.705Z,25.70
2018-10-12T06:47:06.539Z,26.20
2018-10-12T06:49:35.221Z,26.30
2018-10-12T06:52:03.939Z,26.20
2018-10-12T06:54:32.947Z,27.10
2018-10-12T06:57:01.508Z,27.60
2018-10-12T06:59:30.380Z,27.90
2018-10-12T07:01:59.310Z,28.70
2018-10-12T07:04:28.211Z,29.40
2018-10-12T07:06:57.100Z,29.70
2018-10-12T07:09:25.792Z,29.60
2018-10-12T07:11:54.454Z,30.00
2018-10-12T07:14:23.159Z,30.20
2018-10-12T07:16:52.038Z,30.50
2018-10-12T07:19:20.791Z,30.60
2018-10-12T07:21:49.563Z,30.70
2018-10-12T07:24:18.231Z,31.20
2018-10-12T07:26:47.013Z,31.40
2018-10-12T07:29:15.748Z,31.50
2018-10-12T07:31:44.464Z,31.40
2018-10-12T07:34:13.265Z,31.90
2018-10-12T07:36:42.287Z,31.80
2018-10-12T07:39:11.050Z,31.60
2018-10-12T07:41:39.851Z,31.90
2018-10-12T07:44:08.662Z,31.20
2018-10-12T07:46:37.419Z,30.60
2018-10-12T07:49:06.455Z,29.80
2018-10-12T07:51:35.303Z,29.80
2018-10-12T07:54:04.045Z,30.40
2018-10-12T07:56:33.623Z,30.70
2018-10-12T07:59:02.401Z,30.60
2018-10-12T08:01:31.148Z,29.60
2018-10-12T08:03:59.920Z,29.40
2018-10-12T08:06:28.544Z,30.40
2018-10-12T08:08:57.335Z,30.30
2018-10-12T08:11:26.119Z,29.90
2018-10-12T08:13:54.890Z,29.70
2018-10-12T08:16:23.698Z,30.20
2018-10-12T08:18:52.572Z,30.00
2018-10-12T08:21:21.482Z,31.50
2018-10-12T08:23:50.382Z,31.60
2018-10-12T08:26:19.142Z,32.60
2018-10-12T08:28:47.819Z,32.00
2018-10-12T08:31:16.714Z,30.70
2018-10-12T08:33:45.518Z,29.70
2018-10-12T08:36:14.407Z,28.60
2018-10-12T08:38:43.086Z,28.20
2018-10-12T08:41:11.884Z,29.60
2018-10-12T08:43:40.493Z,31.10
2018-10-12T08:46:09.267Z,30.80
2018-10-12T08:48:38.096Z,31.40
2018-10-12T08:51:06.840Z,32.30
2018-10-12T08:53:35.562Z,32.80
2018-10-12T08:56:04.416Z,32.90
2018-10-12T08:58:33.176Z,31.90
2018-10-12T09:01:01.855Z,31.30
2018-10-12T09:03:30.580Z,30.40
2018-10-12T09:05:59.237Z,29.70
2018-10-12T09:08:28.137Z,30.70
2018-10-12T09:10:56.723Z,31.50
2018-10-12T09:13:25.607Z,30.60
2018-10-12T09:15:54.500Z,30.60
2018-10-12T09:18:23.290Z,30.20
2018-10-12T09:20:52.176Z,29.60
2018-10-12T09:23:20.915Z,29.70
2018-10-12T09:25:49.627Z,29.70
2018-10-12T09:28:18.449Z,30.40
2018-10-12T09:30:47.474Z,30.40
2018-10-12T09:33:16.256Z,30.70
2018-10-12T09:35:45.170Z,30.50
2018-10-12T09:38:13.789Z,30.80
2018-10-12T09:40:42.590Z,30.20
2018-10-12T09:43:11.410Z,30.60
2018-10-12T09:45:40.257Z,31.30
2018-10-12T09:48:09.455Z,30.60
2018-10-12T09:50:38.276Z,30.60
2018-10-12T09:53:06.993Z,31.30
2018-10-12T09:55:35.715Z,31.70
2018-10-12T09:58:04.616Z,32.40
2018-10-12T10:00:38.704Z,32.30
2018-10-12T10:03:12.828Z,32.40
2018-10-12T10:05:41.527Z,31.50
2018-10-12T10:08:10.418Z,30.60
2018-10-12T10:10:39.104Z,30.30
2018-10-12T10:13:08.302Z,31.20
2018-10-12T10:15:37.136Z,31.60
2018-10-12T10:18:05.907Z,32.50
2018-10-12T10:20:34.869Z,32.30
2018-10-12T10:23:03.563Z,31.30
2018-10-12T10:25:32.406Z,30.00
2018-10-12T10:28:01.130Z,30.10
2018-10-12T10:30:30.015Z,30.70
2018-10-12T10:32:58.786Z,30.30
2018-10-12T10:35:27.593Z,30.00
2018-10-12T10:37:56.177Z,30.70
2018-10-12T10:40:25.147Z,30.10
2018-10-12T10:42:53.859Z,29.70
2018-10-12T10:45:22.880Z,29.70
2018-10-12T10:47:51.825Z,30.10
2018-10-12T10:50:20.736Z,30.50
2018-10-12T10:52:49.376Z,31.80
2018-10-12T10:55:17.966Z,32.20
2018-10-12T10:57:46.829Z,31.60
2018-10-12T11:00:15.484Z,32.00
2018-10-12T11:02:44.155Z,31.20
2018-10-12T11:05:12.764Z,30.80
2018-10-12T11:07:41.506Z,30.80
2018-10-12T11:10:10.416Z,31.70
2018-10-12T11:12:39.239Z,32.20
2018-10-12T11:15:08.284Z,33.10
2018-10-12T11:17:37.276Z,33.20
2018-10-12T11:20:06.264Z,33.30
2018-10-12T11:22:35.171Z,32.70
2018-10-12T11:25:03.891Z,32.90
2018-10-12T11:27:32.724Z,32.90
2018-10-12T11:30:01.585Z,33.30
2018-10-12T11:32:30.534Z,32.40
2018-10-12T11:34:59.445Z,32.60
2018-10-12T11:37:28.412Z,33.10
2018-10-12T11:39:57.092Z,32.70
2018-10-12T11:42:35.514Z,32.70
2018-10-12T11:45:04.339Z,32.90
2018-10-12T11:47:33.276Z,33.30
2018-10-12T11:50:02.131Z,33.30
2018-10-12T11:52:31.366Z,33.20
2018-10-12T11:55:00.166Z,32.80
2018-10-12T11:57:29.032Z,33.50
2018-10-12T11:59:57.824Z,33.80
2018-10-12T12:02:26.409Z,33.60
2018-10-12T12:04:55.096Z,33.30
2018-10-12T12:07:23.867Z,32.70
2018-10-12T12:09:52.769Z,33.10
2018-10-12T12:12:21.529Z,33.70
2018-10-12T12:14:50.208Z,33.90
2018-10-12T12:17:18.984Z,33.50
2018-10-12T12:19:47.942Z,32.90
2018-10-12T12:22:16.697Z,33.10
2018-10-12T12:24:45.801Z,33.00
2018-10-12T12:27:14.724Z,32.90
2018-10-12T12:29:43.507Z,32.80
2018-10-12T12:32:12.081Z,33.00
2018-10-12T12:34:41.026Z,32.70
2018-10-12T12:37:09.658Z,32.60
2018-10-12T12:39:38.388Z,32.00
2018-10-12T12:42:07.036Z,32.60
2018-10-12T12:44:35.741Z,32.50
2018-10-12T12:47:04.561Z,32.50
2018-10-12T12:49:33.611Z,32.40
2018-10-12T12:52:02.053Z,31.90
2018-10-12T12:54:30.934Z,31.30
2018-10-12T12:56:59.713Z,31.80
2018-10-12T12:59:28.388Z,31.50
2018-10-12T13:01:57.147Z,31.40
2018-10-12T13:04:25.809Z,30.20
2018-10-12T13:06:54.532Z,30.20
2018-10-12T13:09:23.385Z,30.60
2018-10-12T13:11:52.171Z,30.70
2018-10-12T13:14:20.980Z,30.40
2018-10-12T13:16:49.850Z,30.40
2018-10-12T13:19:18.589Z,30.20
2018-10-12T13:21:47.511Z,30.20
2018-10-12T13:24:16.755Z,29.30
2018-10-12T13:26:45.590Z,29.60
2018-10-12T13:29:14.244Z,29.80
2018-10-12T13:31:43.180Z,29.60
2018-10-12T13:34:11.977Z,29.40
2018-10-12T13:36:40.685Z,29.20
2018-10-12T13:39:11.246Z,29.00
2018-10-12T13:41:39.962Z,29.20
2018-10-12T13:44:09.523Z,29.10
2018-10-12T13:46:38.519Z,29.00
2018-10-12T13:49:07.681Z,29.20
2018-10-12T13:51:36.432Z,29.10
2018-10-12T13:54:05.271Z,29.00
2018-10-12T13:56:33.867Z,28.90
2018-10-12T13:59:02.701Z,28.60
2018-10-12T14:01:31.441Z,28.50
2018-10-12T14:04:00.304Z,28.50
2018-10-12T14:06:29.044Z,28.40
2018-10-12T14:08:57.873Z,28.10
2018-10-12T14:11:26.847Z,28.30
2018-10-12T14:13:55.652Z,28.00
2018-10-12T14:16:24.472Z,28.10
2018-10-12T14:18:53.699Z,27.80
2018-10-12T14:21:22.221Z,27.70
2018-10-12T14:23:51.001Z,27.50
2018-10-12T14:26:19.687Z,27.60
2018-10-12T14:28:48.472Z,27.20
2018-10-12T14:31:17.124Z,27.20
2018-10-12T14:33:45.870Z,27.20
2018-10-12T14:36:14.727Z,27.10
2018-10-12T14:38:43.396Z,27.10
2018-10-12T14:41:12.112Z,27.10
2018-10-12T14:43:40.869Z,26.90
2018-10-12T14:46:09.732Z,27.00
2018-10-12T14:48:38.360Z,26.50
2018-10-12T14:51:07.574Z,26.60
2018-10-12T14:53:36.659Z,26.50
2018-10-12T14:56:05.444Z,26.00
2018-10-12T14:58:34.447Z,25.80
2018-10-12T15:01:03.111Z,25.60
2018-10-12T15:03:31.754Z,25.40
2018-10-12T15:06:00.463Z,25.10
2018-10-12T15:08:29.187Z,25.30
2018-10-12T15:10:58.090Z,25.20
2018-10-12T15:13:26.764Z,25.20
2018-10-12T15:15:55.477Z,25.30
2018-10-12T15:18:24.129Z,25.20
2018-10-12T15:20:52.823Z,25.00
2018-10-12T15:23:21.757Z,25.10
2018-10-12T15:25:50.406Z,25.20
2018-10-12T15:28:19.144Z,25.20
2018-10-12T15:30:47.768Z,25.20
2018-10-12T15:33:16.705Z,25.20
2018-10-12T15:35:45.384Z,25.20
2018-10-12T15:38:14.212Z,25.20
2018-10-12T15:40:43.015Z,25.10
2018-10-12T15:43:11.990Z,24.90
2018-10-12T15:45:40.956Z,24.60
2018-10-12T15:48:09.644Z,24.60
2018-10-12T15:50:38.354Z,24.70
2018-10-12T15:53:07.120Z,24.60
2018-10-12T15:55:35.959Z,24.30
2018-10-12T15:58:04.693Z,24.30
2018-10-12T16:00:33.522Z,24.00
2018-10-12T16:03:02.321Z,24.20
2018-10-12T16:05:31.199Z,24.10
2018-10-12T16:07:59.902Z,23.60
2018-10-12T16:10:28.717Z,23.70
2018-10-12T16:12:57.815Z,23.60
2018-10-12T16:15:26.541Z,23.80
2018-10-12T16:17:55.344Z,24.00
2018-10-12T16:20:24.190Z,23.80
2018-10-12T16:22:52.959Z,23.90
2018-10-12T16:26:00.213Z,23.70
2018-10-12T16:28:29.006Z,23.50
2018-10-12T16:30:57.935Z,23.50
2018-10-12T16:33:26.656Z,23.50
2018-10-12T16:35:56.610Z,23.30
2018-10-12T16:38:25.484Z,23.40
2018-10-12T16:40:54.270Z,23.40
2018-10-12T16:43:23.242Z,23.50
2018-10-12T16:45:52.558Z,23.50
2018-10-12T16:48:21.319Z,23.40
2018-10-12T16:50:50.233Z,23.40
2018-10-12T16:53:19.125Z,23.40
2018-10-12T16:55:48.027Z,23.30
2018-10-12T16:58:16.867Z,23.30
2018-10-12T17:00:45.680Z,23.40
2018-10-12T17:03:14.548Z,23.30
2018-10-12T17:05:43.456Z,23.30
2018-10-12T17:08:12.156Z,23.30
2018-10-12T17:10:40.979Z,23.30
2018-10-12T17:13:09.785Z,23.30
2018-10-12T17:15:38.536Z,23.20
2018-10-12T17:18:07.330Z,23.20
2018-10-12T17:20:36.183Z,23.20
2018-10-12T17:23:05.082Z,23.30
2018-10-12T17:25:33.851Z,23.20
2018-10-12T17:28:02.616Z,23.20
2018-10-12T17:30:31.345Z,23.20
2018-10-12T17:33:00.050Z,22.90
2018-10-12T17:35:28.718Z,22.80
2018-10-12T17:37:57.606Z,22.70
2018-10-12T17:40:26.296Z,22.80
2018-10-12T17:42:55.131Z,22.80
2018-10-12T17:45:23.901Z,22.90
2018-10-12T17:47:52.644Z,22.90
2018-10-12T17:50:21.463Z,22.90
2018-10-12T17:52:50.123Z,22.90
2018-10-12T17:55:18.905Z,22.80
2018-10-12T17:57:47.639Z,22.90
2018-10-12T18:00:16.567Z,22.90
2018-10-12T18:02:45.208Z,22.80
2018-10-12T18:05:13.973Z,22.70
2018-10-12T18:07:42.636Z,22.80
2018-10-12T18:10:11.831Z,22.70
2018-10-12T18:12:40.537Z,22.80
2018-10-12T18:15:10.813Z,22.80
2018-10-12T18:17:39.951Z,22.60
2018-10-12T18:20:09.212Z,22.60
2018-10-12T18:22:37.785Z,22.60
2018-10-12T18:25:06.954Z,22.60
2018-10-12T18:27:35.651Z,22.60
2018-10-12T18:30:04.780Z,22.60
2018-10-12T18:32:33.811Z,22.60
2018-10-12T18:35:02.532Z,22.60
2018-10-12T18:37:31.483Z,22.60
2018-10-12T18:40:00.301Z,22.60
2018-10-12T18:42:29.140Z,22.60
2018-10-12T18:44:57.885Z,22.50
2018-10-12T18:47:26.707Z,22.60
2018-10-12T18:49:55.264Z,22.50
2018-10-12T18:52:24.256Z,22.60
2018-10-12T18:54:53.000Z,22.60
2018-10-12T18:57:21.660Z,22.60
2018-10-12T18:59:50.502Z,22.50
2018-10-12T19:02:19.118Z,22.50
2018-10-12T19:04:47.962Z,22.50
2018-10-12T19:07:16.688Z,22.50
2018-10-12T19:09:45.491Z,22.50
2018-10-12T19:12:14.271Z,22.50
2018-10-12T19:14:43.080Z,22.40
2018-10-12T19:17:11.812Z,22.40
2018-10-12T19:19:40.647Z,22.40
2018-10-12T19:22:09.528Z,22.40
2018-10-12T19:24:38.464Z,22.40
2018-10-12T19:27:07.276Z,22.50
2018-10-12T19:29:35.991Z,22.40
2018-10-12T19:32:04.813Z,22.30
2018-10-12T19:34:33.609Z,22.30
2018-10-12T19:37:02.359Z,22.20
2018-10-12T19:39:30.867Z,22.30
2018-10-12T19:41:59.772Z,22.30
2018-10-12T19:44:28.395Z,22.20
2018-10-12T19:46:57.237Z,22.10
2018-10-12T19:49:27.289Z,21.90
2018-10-12T19:51:55.980Z,22.00
2018-10-12T19:54:24.599Z,21.90
2018-10-12T19:56:53.393Z,21.90
2018-10-12T19:59:22.108Z,21.80
2018-10-12T20:01:51.316Z,21.90
2018-10-12T20:04:20.373Z,21.70
2018-10-12T20:06:49.069Z,21.70
2018-10-12T20:09:17.853Z,21.70
2018-10-12T20:11:46.536Z,21.70
2018-10-12T20:14:15.271Z,21.60
2018-10-12T20:16:44.181Z,21.60
2018-10-12T20:19:13.003Z,21.60
2018-10-12T20:21:41.879Z,21.40
2018-10-12T20:24:10.576Z,21.50
2018-10-12T20:26:39.534Z,21.60
2018-10-12T20:29:08.275Z,21.30
2018-10-12T20:31:37.048Z,20.90
2018-10-12T20:34:05.855Z,21.20
2018-10-12T20:36:34.799Z,20.90
2018-10-12T20:39:04.232Z,21.20
2018-10-12T20:41:32.815Z,21.10
2018-10-12T20:44:01.679Z,21.30
2018-10-12T20:46:30.328Z,21.30
2018-10-12T20:48:59.317Z,21.30
2018-10-12T20:51:28.047Z,21.40
2018-10-12T20:53:56.971Z,21.40
2018-10-12T20:56:25.752Z,21.40
2018-10-12T20:58:54.424Z,21.40
2018-10-12T21:01:23.365Z,21.50
2018-10-12T21:03:52.260Z,21.60
2018-10-12T21:06:21.202Z,21.60
2018-10-12T21:08:49.911Z,21.70
2018-10-12T21:11:18.518Z,21.80
2018-10-12T21:13:47.373Z,21.70
2018-10-12T21:16:16.583Z,21.60
2018-10-12T21:18:45.341Z,21.60
2018-10-12T21:21:14.298Z,21.40
2018-10-12T21:23:43.004Z,21.30
2018-10-12T21:26:11.921Z,21.20
2018-10-12T21:28:40.609Z,21.30
2018-10-12T21:31:09.343Z,21.30
2018-10-12T21:33:38.066Z,21.30
2018-10-12T21:36:06.705Z,21.30
2018-10-12T21:38:35.334Z,21.20
2018-10-12T21:41:04.225Z,21.10
2018-10-12T21:43:32.926Z,21.20
2018-10-12T21:46:01.596Z,21.20
2018-10-12T21:48:30.342Z,21.20
2018-10-12T21:50:58.903Z,20.90
2018-10-12T21:53:27.491Z,20.80
2018-10-12T21:55:56.436Z,20.70
2018-10-12T21:58:25.104Z,20.50
2018-10-12T22:00:59.476Z,20.60
2018-10-12T22:03:28.081Z,20.40
2018-10-12T22:05:57.003Z,20.30
2018-10-12T22:08:31.049Z,20.30
2018-10-12T22:10:59.875Z,20.20
2018-10-12T22:13:28.652Z,20.10
2018-10-12T22:15:57.654Z,19.90
2018-10-12T22:18:26.592Z,20.20
2018-10-12T22:20:55.480Z,20.20
2018-10-12T22:23:24.148Z,19.90
2018-10-12T22:25:52.931Z,20.00
2018-10-12T22:28:21.665Z,20.00
2018-10-12T22:30:50.513Z,19.70
2018-10-12T22:33:19.337Z,19.70
2018-10-12T22:35:48.136Z,19.70
2018-10-12T22:38:17.002Z,19.90
2018-10-12T22:40:45.663Z,19.90
2018-10-12T22:43:14.468Z,19.80
2018-10-12T22:45:43.226Z,19.60
2018-10-12T22:48:12.373Z,19.50
2018-10-12T22:50:41.063Z,19.30
2018-10-12T22:53:09.733Z,19.20
2018-10-12T22:55:38.490Z,19.00
2018-10-12T22:58:07.226Z,18.90
2018-10-12T23:00:35.914Z,18.80
2018-10-12T23:03:04.763Z,18.80
2018-10-12T23:05:33.535Z,18.90
2018-10-12T23:08:02.421Z,19.00
2018-10-12T23:10:31.152Z,18.80
2018-10-12T23:12:59.914Z,18.70
2018-10-12T23:15:28.767Z,18.60
2018-10-12T23:17:57.668Z,18.70
2018-10-12T23:20:26.441Z,18.90
2018-10-12T23:22:55.337Z,18.90
2018-10-12T23:25:24.064Z,18.70
2018-10-12T23:27:52.746Z,18.50
2018-10-12T23:30:21.512Z,18.50
2018-10-12T23:32:50.512Z,18.40
2018-10-12T23:35:19.319Z,18.40
2018-10-12T23:37:48.259Z,18.30
2018-10-12T23:40:16.979Z,18.30
2018-10-12T23:42:45.854Z,18.20
2018-10-12T23:45:14.661Z,18.20
2018-10-12T23:47:43.544Z,18.20
2018-10-12T23:50:12.215Z,18.20
2018-10-12T23:52:41.282Z,18.10
2018-10-12T23:55:09.841Z,18.10
2018-10-12T23:57:38.688Z,18.20
